ROMMA est une association bénévole à but non lucratif. Votre soutien est indispensable : ADHERER à ROMMA ou FAIRE un DON

Briord - (01, Ain)

Bugey (281 m)   Longitude: 05° 29' 13" E   Latitude: 45° 46' 37" N Station partenaire n°15
 

Détail journalier du     <<     >>

Température Precipitation Humidité Pression Vent Dir Rafale Dir. rafale Ensol.
Heure (°C) (mm) (%) (hPa) (km/h) (km/h) (min)
01:00 0.109410194NO18ONO0
02:00 0.009410194NO19NO0
03:00 -0.609310201---13ONO0
04:00 -0.609310193NO13NO0
05:00 -0.209310194NO16NO0
06:00 -0.309310206NO23NO0
07:00 -0.409210206NO19NO0
08:00 -0.1092102111NO27O0
09:00 -0.309210228NO21NO0
10:00 0.109110237NO19NNO0
11:00 1.70.28610235NO18ONO40
12:00 1.40.688102312NO26NO20
13:00 2.20.283102311NO27NNO35
14:00 3.6077102210NO24NO55
15:00 4.6071102211NO26NNO60
16:00 4.307210229NO23ONO60
17:00 2.807910233NO16O40
18:00 1.408510235ONO21ONO0
19:00 0.808610236ONO19O0
20:00 0.708510245NO23NO0
21:00 0.308610241NO13NO0
22:00 0.008710242NNO15N0
23:00 -0.708710253NO16NNO0
minuit -1.60.289102508NE0

Graphique du 10-01-2019

 

Serveur OMMA